Time;durP1;ratioP1;P1;durP2;ratioP2;P2;SDS_P1;SDS_P2;PMS_P1;PMS_P2;Temp;Humidity;BMP_temperature;BMP_pressure;BME280_temperature;BME280_humidity;BME280_pressure;Samples;Min_cycle;Max_cycle;Signal;HPM_P1;HPM_P2
2020/12/01 00:01:28;;;;;;;20.10;14.70;;;;;;;0.27;81.40;100862.89;1712600;83;21141;-83
2020/12/01 00:03:55;;;;;;;18.03;12.27;;;;;;;0.31;81.53;100862.91;1749775;81;21566;-83
2020/12/01 00:06:24;;;;;;;15.03;11.57;;;;;;;0.27;81.42;100862.41;1755482;81;21113;-79
2020/12/01 00:08:52;;;;;;;18.23;13.33;;;;;;;0.15;81.83;100853.04;1755154;81;21010;-80
2020/12/01 00:11:22;;;;;;;19.97;14.40;;;;;;;0.04;82.30;100848.02;1755832;81;21160;-78
2020/12/01 00:13:50;;;;;;;18.93;14.07;;;;;;;0.02;82.48;100855.26;1755803;81;21604;-81
2020/12/01 00:16:18;;;;;;;19.03;12.73;;;;;;;-0.03;82.80;100849.59;1723422;81;21203;-73
2020/12/01 00:18:46;;;;;;;17.27;13.27;;;;;;;-0.10;83.26;100854.69;1712967;81;21599;-73
2020/12/01 00:21:16;;;;;;;19.10;12.70;;;;;;;-0.20;83.74;100855.25;1752598;81;21136;-74
2020/12/01 00:23:43;;;;;;;18.07;10.90;;;;;;;-0.24;84.30;100858.36;1752716;81;21121;-73
2020/12/01 00:26:17;;;;;;;15.70;11.43;;;;;;;-0.27;84.61;100861.28;1753000;81;21609;-67
2020/12/01 00:28:45;;;;;;;24.30;14.87;;;;;;;-0.23;84.57;100867.44;1755871;81;21187;-69
2020/12/01 00:31:15;;;;;;;20.20;14.57;;;;;;;-0.23;84.71;100867.44;1732329;81;21141;-65
2020/12/01 00:33:42;;;;;;;19.27;13.20;;;;;;;-0.15;84.57;100872.81;1724087;83;21133;-66
2020/12/01 00:36:11;;;;;;;24.17;14.83;;;;;;;-0.09;84.42;100874.00;1723915;83;21905;-64
2020/12/01 00:38:40;;;;;;;28.90;17.07;;;;;;;-0.03;84.23;100873.39;1724050;83;21169;-66
2020/12/01 00:41:08;;;;;;;22.90;16.57;;;;;;;-0.02;84.07;100879.03;1737787;81;21574;-66
2020/12/01 00:43:35;;;;;;;27.70;17.03;;;;;;;0.02;83.93;100873.77;1755029;81;21625;-67
2020/12/01 00:46:03;;;;;;;23.13;14.13;;;;;;;0.08;83.79;100872.33;1755603;81;21169;-69
2020/12/01 00:48:43;;;;;;;29.67;20.73;;;;;;;0.07;83.68;100868.85;1717986;83;21118;-64
2020/12/01 00:51:13;;;;;;;21.93;12.77;;;;;;;-0.02;83.76;100869.78;1693745;82;21728;-73
2020/12/01 00:53:41;;;;;;;21.80;15.53;;;;;;;-0.04;84.05;100867.77;1708528;84;22083;-72
2020/12/01 00:56:09;;;;;;;20.20;14.20;;;;;;;-0.08;84.18;100865.92;1708430;84;21155;-77
2020/12/01 00:58:37;;;;;;;27.10;16.00;;;;;;;-0.11;84.41;100860.95;1704219;83;21630;-82
2020/12/01 01:01:06;;;;;;;19.33;13.63;;;;;;;-0.16;84.80;100856.61;1691334;84;21142;-70
2020/12/01 01:03:35;;;;;;;17.60;13.90;;;;;;;-0.13;84.80;100855.45;1710826;82;21764;-69
2020/12/01 01:06:03;;;;;;;20.07;15.53;;;;;;;-0.09;84.87;100859.45;1722020;82;21594;-67
2020/12/01 01:08:31;;;;;;;26.73;18.07;;;;;;;-0.04;84.81;100859.83;1748578;81;21166;-67
2020/12/01 01:10:59;;;;;;;27.70;16.27;;;;;;;0.04;84.81;100856.44;1734517;82;21150;-68
2020/12/01 01:13:27;;;;;;;22.63;14.77;;;;;;;0.03;84.64;100854.77;1722414;83;21014;-67
2020/12/01 01:15:55;;;;;;;21.57;16.37;;;;;;;0.04;84.71;100850.66;1719438;83;21586;-66
2020/12/01 01:18:23;;;;;;;25.60;17.53;;;;;;;0.08;84.71;100848.53;1718492;83;21403;-68
2020/12/01 01:20:51;;;;;;;24.07;16.80;;;;;;;0.08;84.65;100861.75;1716947;83;21622;-69
2020/12/01 01:23:19;;;;;;;20.83;15.77;;;;;;;0.10;84.70;100851.83;1689565;84;21030;-67
2020/12/01 01:25:47;;;;;;;19.93;13.43;;;;;;;0.09;84.89;100862.10;1690220;84;21637;-64
2020/12/01 01:28:15;;;;;;;24.67;16.50;;;;;;;0.06;85.01;100862.39;1674757;85;22083;-67
2020/12/01 01:30:42;;;;;;;22.93;15.20;;;;;;;0.02;85.22;100861.03;1682481;84;21593;-66
2020/12/01 01:33:12;;;;;;;23.03;15.90;;;;;;;-0.06;85.45;100868.42;1704297;84;20997;-66
2020/12/01 01:35:39;;;;;;;23.40;16.67;;;;;;;-0.09;85.65;100867.39;1704739;83;21577;-69
2020/12/01 01:38:07;;;;;;;26.70;19.03;;;;;;;-0.10;85.87;100871.04;1698175;83;21018;-68
2020/12/01 01:40:36;;;;;;;19.30;14.00;;;;;;;-0.10;85.97;100876.33;1711911;83;21220;-68
2020/12/01 01:43:04;;;;;;;25.20;16.20;;;;;;;-0.09;86.15;100870.86;1704641;84;21214;-68
2020/12/01 01:45:44;;;;;;;22.93;16.83;;;;;;;-0.14;86.30;100873.62;1700712;83;21168;-67
2020/12/01 01:48:17;;;;;;;23.30;15.57;;;;;;;-0.18;86.44;100875.74;1702973;84;21678;-66
2020/12/01 01:51:05;;;;;;;24.23;17.40;;;;;;;-0.16;86.60;100883.53;1702289;84;22152;-69
2020/12/01 01:53:35;;;;;;;23.53;14.70;;;;;;;-0.21;86.65;100879.19;1700375;83;21176;-71
2020/12/01 01:56:08;;;;;;;25.17;17.70;;;;;;;-0.18;86.86;100873.59;1694341;84;21669;-71
2020/12/01 01:58:40;;;;;;;21.27;16.97;;;;;;;-0.19;86.93;100871.95;1673909;83;21212;-71
2020/12/01 02:01:12;;;;;;;23.90;15.32;;;;;;;-0.16;86.91;100869.83;1695033;84;21819;-70
2020/12/01 02:03:49;;;;;;;20.03;14.03;;;;;;;-0.11;86.88;100867.56;1699332;83;21149;-69
2020/12/01 02:06:23;;;;;;;24.20;16.30;;;;;;;-0.06;86.79;100869.25;1684259;84;21651;-71
2020/12/01 02:08:54;;;;;;;28.30;19.27;;;;;;;-0.03;86.61;100868.11;1700994;83;25110;-69
2020/12/01 02:11:21;;;;;;;26.10;17.47;;;;;;;-0.04;86.51;100869.92;1701403;84;21611;-70
2020/12/01 02:14:12;;;;;;;30.03;16.10;;;;;;;-0.03;86.52;100876.88;1702503;84;21173;-68
2020/12/01 02:16:49;;;;;;;25.60;17.10;;;;;;;-0.04;86.55;100866.44;1688777;83;21580;-68
2020/12/01 02:19:21;;;;;;;24.77;15.97;;;;;;;-0.07;86.57;100866.76;1716830;83;21145;-70
2020/12/01 02:21:49;;;;;;;24.72;16.23;;;;;;;-0.15;86.80;100861.41;1717356;83;21392;-70
2020/12/01 02:24:35;;;;;;;22.90;13.43;;;;;;;-0.17;86.86;100868.16;1716010;83;21003;-70
2020/12/01 02:27:03;;;;;;;23.47;14.70;;;;;;;-0.22;87.18;100867.78;1672688;85;21161;-68
2020/12/01 02:29:35;;;;;;;23.53;16.60;;;;;;;-0.26;87.39;100875.67;1691041;84;21141;-68
2020/12/01 02:32:05;;;;;;;20.00;13.10;;;;;;;-0.26;87.41;100863.78;1702588;84;21615;-70
2020/12/01 02:34:39;;;;;;;21.03;14.20;;;;;;;-0.22;87.47;100874.88;1702161;84;21200;-69
2020/12/01 02:37:09;;;;;;;25.00;18.60;;;;;;;-0.24;87.38;100876.86;1702429;84;21116;-68
2020/12/01 02:39:38;;;;;;;14.87;10.47;;;;;;;-0.22;87.44;100884.13;1695836;84;21121;-68
2020/12/01 02:42:08;;;;;;;20.57;15.60;;;;;;;-0.20;87.52;100890.95;1702383;83;21999;-69
2020/12/01 02:44:36;;;;;;;26.30;18.57;;;;;;;-0.19;87.44;100898.39;1702499;84;21161;-67
2020/12/01 02:47:05;;;;;;;20.10;12.90;;;;;;;-0.15;87.48;100889.17;1702295;83;22390;-68
2020/12/01 02:49:33;;;;;;;20.90;14.67;;;;;;;-0.12;87.38;100894.98;1701491;84;21225;-70
2020/12/01 02:52:03;;;;;;;22.77;16.77;;;;;;;-0.13;87.28;100893.80;1685104;84;21563;-71
2020/12/01 02:54:31;;;;;;;23.03;16.97;;;;;;;-0.19;87.40;100905.80;1675674;84;21030;-68
2020/12/01 02:56:59;;;;;;;17.77;12.60;;;;;;;-0.17;87.46;100904.34;1698022;84;21558;-70
2020/12/01 02:59:26;;;;;;;21.00;12.80;;;;;;;-0.11;87.54;100907.22;1745431;81;21597;-70
2020/12/01 03:01:54;;;;;;;21.30;15.70;;;;;;;-0.11;87.38;100908.55;1739158;81;21614;-68
2020/12/01 03:04:22;;;;;;;18.57;13.80;;;;;;;-0.12;87.32;100894.14;1720694;83;21566;-69
2020/12/01 03:06:50;;;;;;;22.70;14.07;;;;;;;-0.15;87.45;100901.90;1720953;83;21606;-69
2020/12/01 03:09:19;;;;;;;22.67;14.63;;;;;;;-0.18;87.51;100905.31;1720589;83;21188;-70
2020/12/01 03:11:48;;;;;;;23.50;16.03;;;;;;;-0.26;87.75;100894.19;1749323;81;21380;-69
2020/12/01 03:14:17;;;;;;;18.97;13.90;;;;;;;-0.21;87.81;100896.38;1751887;81;21188;-70
2020/12/01 03:16:49;;;;;;;23.13;17.17;;;;;;;-0.22;87.74;100890.25;1751368;81;21022;-68
2020/12/01 03:19:19;;;;;;;19.97;14.93;;;;;;;-0.18;87.79;100894.73;1752050;81;21553;-69
2020/12/01 03:21:47;;;;;;;20.87;14.33;;;;;;;-0.15;87.67;100886.52;1744114;81;21585;-68
2020/12/01 03:24:14;;;;;;;25.20;16.67;;;;;;;-0.19;87.56;100890.45;1739045;81;21214;-67
2020/12/01 03:26:43;;;;;;;19.43;13.67;;;;;;;-0.13;87.70;100897.76;1751957;81;21586;-67
2020/12/01 03:29:11;;;;;;;16.97;13.77;;;;;;;-0.06;87.60;100897.02;1752017;81;21578;-67
2020/12/01 03:31:39;;;;;;;21.53;14.93;;;;;;;-0.04;87.35;100896.36;1750882;81;21588;-66
2020/12/01 03:34:07;;;;;;;21.33;15.00;;;;;;;-0.10;87.15;100897.48;1716503;83;21138;-66
2020/12/01 03:36:35;;;;;;;20.87;13.17;;;;;;;-0.16;87.20;100894.95;1701404;83;21471;-68
2020/12/01 03:39:03;;;;;;;18.03;14.57;;;;;;;-0.24;87.45;100897.48;1701263;84;21217;-68
2020/12/01 03:41:31;;;;;;;20.83;12.43;;;;;;;-0.25;87.55;100893.70;1693778;84;20975;-68
2020/12/01 03:43:58;;;;;;;22.37;15.10;;;;;;;-0.25;87.68;100906.42;1674988;84;21603;-67
2020/12/01 03:46:26;;;;;;;16.13;12.03;;;;;;;-0.26;87.63;100911.36;1678375;84;21189;-68
2020/12/01 03:48:58;;;;;;;22.27;15.90;;;;;;;-0.22;87.72;100911.40;1701352;83;21353;-67
2020/12/01 03:51:26;;;;;;;14.33;9.13;;;;;;;-0.22;87.66;100910.08;1689519;84;21593;-68
2020/12/01 03:53:54;;;;;;;23.70;15.97;;;;;;;-0.24;87.68;100913.87;1671975;84;21042;-68
2020/12/01 03:56:21;;;;;;;20.30;13.77;;;;;;;-0.20;87.66;100902.01;1671638;85;21205;-68
2020/12/01 03:58:49;;;;;;;22.07;13.33;;;;;;;-0.26;87.57;100903.92;1671609;85;21173;-68
2020/12/01 04:01:16;;;;;;;18.23;13.90;;;;;;;-0.28;87.76;100904.55;1692790;84;23459;-68
2020/12/01 04:03:44;;;;;;;17.53;13.40;;;;;;;-0.34;87.92;100904.69;1699331;84;21170;-68
2020/12/01 04:06:11;;;;;;;21.63;12.60;;;;;;;-0.28;88.00;100896.12;1701351;84;21622;-68
2020/12/01 04:08:39;;;;;;;18.10;12.37;;;;;;;-0.23;87.89;100892.55;1701226;84;21703;-67
2020/12/01 04:11:07;;;;;;;16.03;11.97;;;;;;;-0.20;87.74;100896.23;1698903;84;21134;-67
2020/12/01 04:13:35;;;;;;;16.77;11.73;;;;;;;-0.19;87.68;100893.10;1697741;84;21420;-68
2020/12/01 04:16:02;;;;;;;15.17;11.03;;;;;;;-0.19;87.59;100889.94;1701281;84;21634;-67
2020/12/01 04:18:30;;;;;;;15.90;12.10;;;;;;;-0.21;87.54;100893.23;1701322;84;21614;-67
2020/12/01 04:20:57;;;;;;;21.77;13.23;;;;;;;-0.26;87.59;100903.44;1690515;84;21217;-68
2020/12/01 04:23:25;;;;;;;18.53;13.53;;;;;;;-0.28;87.77;100909.83;1701341;84;21542;-68
2020/12/01 04:25:53;;;;;;;15.43;11.50;;;;;;;-0.34;87.90;100898.08;1700714;84;21199;-69
2020/12/01 04:28:21;;;;;;;20.47;11.50;;;;;;;-0.32;88.00;100896.58;1701024;84;21185;-68
2020/12/01 04:30:48;;;;;;;17.37;12.40;;;;;;;-0.31;88.03;100902.22;1695527;84;21597;-68
2020/12/01 04:33:16;;;;;;;16.50;11.47;;;;;;;-0.32;88.06;100899.23;1701857;84;21160;-69
2020/12/01 04:35:44;;;;;;;15.03;10.77;;;;;;;-0.28;88.10;100901.42;1701393;84;21197;-70
2020/12/01 04:38:12;;;;;;;19.93;12.03;;;;;;;-0.20;88.05;100897.55;1701202;84;21607;-72
2020/12/01 04:40:39;;;;;;;14.47;11.27;;;;;;;-0.17;87.81;100885.34;1701161;84;21647;-74
2020/12/01 04:43:31;;;;;;;18.43;13.40;;;;;;;-0.17;87.74;100889.31;1695038;84;21122;-71
2020/12/01 04:45:59;;;;;;;15.73;11.37;;;;;;;-0.12;87.75;100888.85;1667966;84;21661;-69
2020/12/01 04:48:36;;;;;;;20.37;14.17;;;;;;;-0.05;87.56;100892.05;1688964;84;21173;-69
2020/12/01 04:51:35;;;;;;;17.47;11.80;;;;;;;-0.11;87.24;100899.28;1703032;83;21392;-68
2020/12/01 04:54:25;;;;;;;16.97;12.53;;;;;;;-0.12;87.34;100898.11;1712659;83;21033;-70
2020/12/01 04:57:40;;;;;;;11.40;9.40;;;;;;;-0.09;87.38;100902.59;1715217;83;21575;-70
2020/12/01 05:00:59;;;;;;;15.33;12.57;;;;;;;-0.07;87.37;100898.00;1681893;83;21174;-70
2020/12/01 05:03:50;;;;;;;20.03;15.60;;;;;;;-0.03;87.31;100890.58;1703025;84;21157;-70
2020/12/01 05:09:23;;;;;;;19.03;15.27;;;;;;;0.07;87.22;100895.30;1700916;84;21570;-68
2020/12/01 05:12:00;;;;;;;17.43;13.67;;;;;;;0.12;87.04;100897.48;1702517;83;21205;-70
2020/12/01 05:14:44;;;;;;;18.33;14.60;;;;;;;0.14;86.86;100902.98;1687910;83;21141;-70
2020/12/01 05:17:43;;;;;;;19.87;12.93;;;;;;;0.10;86.59;100907.38;1674417;84;21188;-69
2020/12/01 05:20:11;;;;;;;16.47;9.90;;;;;;;0.08;86.60;100910.69;1674593;85;21384;-72
2020/12/01 05:22:50;;;;;;;19.90;14.20;;;;;;;0.05;86.64;100910.48;1677385;85;21036;-70
2020/12/01 05:25:30;;;;;;;20.77;14.63;;;;;;;0.09;86.76;100915.00;1715668;83;21626;-71
2020/12/01 05:28:12;;;;;;;18.57;11.87;;;;;;;0.04;86.46;100922.06;1716517;83;21138;-70
2020/12/01 05:30:42;;;;;;;19.10;11.57;;;;;;;0.02;86.50;100913.92;1716527;83;21543;-69
2020/12/01 05:33:27;;;;;;;16.93;11.73;;;;;;;0.03;86.60;100911.14;1705913;84;21211;-71
2020/12/01 05:36:08;;;;;;;14.00;9.37;;;;;;;0.08;86.54;100913.33;1711485;83;21085;-70
2020/12/01 05:38:35;;;;;;;14.47;10.93;;;;;;;0.02;86.45;100921.37;1686667;85;21649;-70
2020/12/01 05:41:20;;;;;;;20.50;12.70;;;;;;;-0.08;86.68;100919.30;1686359;85;21193;-68
2020/12/01 05:43:56;;;;;;;13.80;9.67;;;;;;;-0.10;86.79;100908.05;1643488;87;21198;-70
2020/12/01 05:46:35;;;;;;;15.97;13.10;;;;;;;-0.04;86.98;100904.78;1677438;85;21284;-69
2020/12/01 05:49:08;;;;;;;20.50;17.13;;;;;;;0.04;86.94;100911.48;1689611;84;21594;-69
2020/12/01 05:51:46;;;;;;;21.50;14.47;;;;;;;0.07;86.83;100916.95;1673295;85;21760;-69
2020/12/01 05:54:19;;;;;;;13.83;11.70;;;;;;;0.10;86.72;100914.83;1674055;85;21086;-70
2020/12/01 05:56:51;;;;;;;16.90;12.23;;;;;;;0.12;86.59;100924.77;1675968;83;21220;-69
2020/12/01 05:59:22;;;;;;;15.30;11.83;;;;;;;0.12;86.45;100912.87;1672768;85;22012;-69
2020/12/01 06:02:05;;;;;;;19.43;13.77;;;;;;;0.11;86.44;100922.27;1675347;84;21606;-70
2020/12/01 06:04:33;;;;;;;19.57;13.93;;;;;;;0.10;86.47;100917.95;1684723;83;21158;-70
2020/12/01 06:07:16;;;;;;;13.20;10.67;;;;;;;0.14;86.59;100918.02;1673708;85;21835;-69
2020/12/01 06:10:08;;;;;;;16.07;12.88;;;;;;;0.14;86.35;100925.47;1673928;85;21121;-69
2020/12/01 06:13:14;;;;;;;18.90;14.20;;;;;;;0.10;86.36;100926.72;1673296;85;21366;-69
2020/12/01 06:16:06;;;;;;;19.43;13.77;;;;;;;0.11;86.53;100920.95;1673734;85;22338;-71
2020/12/01 06:19:05;;;;;;;16.70;11.97;;;;;;;0.10;86.49;100926.72;1695250;83;21121;-70
2020/12/01 06:22:07;;;;;;;30.13;20.20;;;;;;;0.08;86.59;100931.36;1683576;84;21634;-71
2020/12/01 06:25:22;;;;;;;20.33;13.83;;;;;;;-0.06;86.92;100924.79;1693487;84;21679;-70
2020/12/01 06:28:27;;;;;;;21.60;14.85;;;;;;;0.02;87.23;100929.80;1677731;85;25518;-72
2020/12/01 06:31:18;;;;;;;24.97;16.63;;;;;;;0.07;87.10;100926.20;1693286;84;21019;-70
2020/12/01 06:34:24;;;;;;;27.03;17.50;;;;;;;0.07;87.06;100934.14;1624348;85;21625;-70
2020/12/01 06:37:23;;;;;;;26.33;16.43;;;;;;;0.08;87.16;100936.64;1674003;85;21682;-70
2020/12/01 06:40:20;;;;;;;65.83;48.70;;;;;;;0.10;87.24;100936.47;1674262;83;21180;-69
2020/12/01 06:43:01;;;;;;;37.30;26.93;;;;;;;0.10;87.10;100938.63;1672588;85;21379;-70
2020/12/01 06:45:46;;;;;;;25.43;19.57;;;;;;;0.10;86.99;100940.44;1657129;85;21147;-71
2020/12/01 06:48:20;;;;;;;23.43;15.70;;;;;;;0.09;86.85;100938.31;1700281;83;21134;-70
2020/12/01 06:50:52;;;;;;;35.17;23.53;;;;;;;0.09;86.86;100938.31;1717041;83;21161;-70
2020/12/01 06:53:31;;;;;;;22.33;15.07;;;;;;;0.12;86.87;100935.84;1717070;83;21141;-69
2020/12/01 06:56:06;;;;;;;22.60;16.23;;;;;;;0.14;86.99;100942.66;1716915;83;22642;-70
2020/12/01 06:58:40;;;;;;;22.07;15.90;;;;;;;0.19;86.92;100952.27;1714243;83;21686;-70
2020/12/01 07:01:30;;;;;;;18.77;13.70;;;;;;;0.23;86.82;100953.65;1702375;84;21034;-70
2020/12/01 07:04:16;;;;;;;21.00;15.90;;;;;;;0.25;86.66;100952.98;1702456;83;21578;-70
2020/12/01 07:06:56;;;;;;;16.80;13.10;;;;;;;0.20;86.57;100944.67;1702333;84;21586;-69
2020/12/01 07:09:32;;;;;;;13.03;8.77;;;;;;;0.17;86.60;100943.66;1684851;84;22120;-69
2020/12/01 07:12:17;;;;;;;17.77;12.27;;;;;;;0.18;86.66;100941.85;1688896;85;21702;-70
2020/12/01 07:14:52;;;;;;;13.97;11.57;;;;;;;0.14;86.55;100937.86;1721026;83;21066;-70
2020/12/01 07:17:31;;;;;;;27.90;17.00;;;;;;;0.17;86.77;100944.98;1721008;83;21137;-71
2020/12/01 07:20:16;;;;;;;30.73;19.93;;;;;;;0.17;86.67;100941.02;1696371;83;21125;-71
2020/12/01 07:22:59;;;;;;;21.50;14.30;;;;;;;0.23;86.62;100939.09;1692474;84;22066;-71
2020/12/01 07:25:36;;;;;;;33.80;19.17;;;;;;;0.24;86.09;100949.19;1692399;84;21188;-70
2020/12/01 07:28:24;;;;;;;19.10;14.70;;;;;;;0.25;86.04;100937.60;1692450;84;21189;-71
2020/12/01 07:31:01;;;;;;;16.10;12.27;;;;;;;0.22;85.76;100951.14;1709289;83;21181;-71
2020/12/01 07:33:33;;;;;;;12.10;9.70;;;;;;;0.24;85.91;100947.87;1722987;83;21630;-71
2020/12/01 07:36:32;;;;;;;16.53;11.97;;;;;;;0.24;85.50;100952.64;1722813;83;21210;-70
2020/12/01 07:39:15;;;;;;;19.23;12.50;;;;;;;0.28;85.62;100946.09;1714018;83;21614;-74
2020/12/01 07:41:47;;;;;;;10.73;8.47;;;;;;;0.31;85.57;100945.77;1720764;83;21026;-72
2020/12/01 07:44:18;;;;;;;15.00;11.20;;;;;;;0.35;85.39;100945.80;1722764;83;21650;-72
2020/12/01 07:47:02;;;;;;;14.78;10.63;;;;;;;0.39;85.19;100956.41;1713985;83;22226;-70
2020/12/01 07:49:32;;;;;;;17.50;11.03;;;;;;;0.44;85.02;100951.98;1719866;83;21337;-74
2020/12/01 07:52:26;;;;;;;19.17;12.20;;;;;;;0.46;84.76;100951.34;1718994;83;21169;-73
2020/12/01 07:55:08;;;;;;;16.73;11.40;;;;;;;0.47;84.48;100952.19;1718948;83;21145;-73
2020/12/01 07:57:36;;;;;;;20.60;14.33;;;;;;;0.46;84.28;100948.70;1718293;83;21230;-73
2020/12/01 08:00:04;;;;;;;30.83;21.47;;;;;;;0.43;83.88;100945.85;1695199;83;21099;-73
2020/12/01 08:02:34;;;;;;;26.43;16.17;;;;;;;0.40;84.17;100948.81;1722874;82;21198;-72
2020/12/01 08:05:07;;;;;;;15.00;10.47;;;;;;;0.40;83.97;100951.47;1723278;83;21119;-72
2020/12/01 08:07:35;;;;;;;18.17;12.50;;;;;;;0.43;83.79;100951.14;1723342;83;21571;-73
2020/12/01 08:10:12;;;;;;;45.43;26.40;;;;;;;0.48;83.68;100946.71;1723287;83;21174;-72
2020/12/01 08:12:44;;;;;;;13.97;9.37;;;;;;;0.47;83.83;100949.05;1723500;83;21561;-72
2020/12/01 08:15:16;;;;;;;15.07;10.83;;;;;;;0.45;83.65;100947.03;1723628;83;21259;-72
2020/12/01 08:17:44;;;;;;;31.80;19.83;;;;;;;0.47;83.50;100947.72;1723158;82;21183;-71
2020/12/01 08:20:16;;;;;;;23.00;14.50;;;;;;;0.47;83.42;100944.24;1723113;83;21661;-70
2020/12/01 08:22:55;;;;;;;47.88;27.50;;;;;;;0.50;83.43;100940.78;1701662;83;21195;-70
2020/12/01 08:25:27;;;;;;;13.60;9.70;;;;;;;0.57;83.33;100937.05;1689848;84;21173;-69
2020/12/01 08:28:09;;;;;;;15.07;9.60;;;;;;;0.58;82.93;100941.33;1692914;84;21558;-69
2020/12/01 08:31:18;;;;;;;13.53;7.93;;;;;;;0.60;82.89;100931.43;1882670;76;26353;-69
2020/12/01 08:34:30;;;;;;;13.77;9.27;;;;;;;0.55;82.62;100940.32;1754463;80;21027;-73
2020/12/01 08:37:32;;;;;;;27.57;12.20;;;;;;;0.56;82.31;100942.83;1809278;79;22278;-72
2020/12/01 08:40:39;;;;;;;23.20;12.07;;;;;;;0.53;82.44;100943.11;1779472;80;21062;-72
2020/12/01 08:43:21;;;;;;;26.07;14.13;;;;;;;0.53;82.45;100944.44;1780501;80;21061;-71
2020/12/01 08:46:14;;;;;;;11.60;8.43;;;;;;;0.62;82.62;100946.67;1784077;80;26127;-72
2020/12/01 08:48:53;;;;;;;15.90;9.57;;;;;;;0.71;82.52;100939.13;1786620;80;21146;-73
2020/12/01 08:51:28;;;;;;;18.30;11.33;;;;;;;0.71;81.98;100937.31;1786612;80;21382;-70
2020/12/01 08:54:05;;;;;;;11.47;8.20;;;;;;;0.73;81.55;100935.32;1810679;79;21064;-70
2020/12/01 08:56:56;;;;;;;12.40;8.70;;;;;;;0.76;81.58;100932.88;1780343;80;20969;-71
2020/12/01 08:59:41;;;;;;;10.37;7.30;;;;;;;0.81;81.76;100927.94;1783979;80;20999;-71
2020/12/01 09:02:10;;;;;;;8.13;6.43;;;;;;;0.82;81.27;100937.52;1782578;80;21150;-71
2020/12/01 09:04:38;;;;;;;8.50;6.23;;;;;;;0.84;81.05;100931.09;1807293;78;21369;-70
2020/12/01 09:07:25;;;;;;;9.63;5.67;;;;;;;0.82;81.02;100929.58;1760485;80;21030;-69
2020/12/01 09:09:52;;;;;;;7.28;5.97;;;;;;;0.81;80.97;100923.97;1779429;80;21561;-69
2020/12/01 09:12:36;;;;;;;9.00;6.17;;;;;;;0.84;81.02;100928.45;1754089;81;21169;-69
2020/12/01 09:15:16;;;;;;;12.57;8.17;;;;;;;0.85;80.77;100930.11;1752700;81;21633;-69
2020/12/01 09:18:20;;;;;;;8.77;6.67;;;;;;;0.88;80.96;100926.31;1722786;82;22191;-70
2020/12/01 09:23:20;;;;;;;15.53;7.60;;;;;;;0.92;81.53;100919.70;1752344;81;22298;-71
2020/12/01 09:25:48;;;;;;;7.37;5.80;;;;;;;0.95;81.63;100919.90;1750243;82;21224;-70
2020/12/01 09:28:20;;;;;;;11.00;5.70;;;;;;;0.90;81.50;100926.99;1750505;82;21109;-71
2020/12/01 09:30:48;;;;;;;4.20;3.70;;;;;;;0.89;81.57;100916.05;1753430;81;21320;-72
2020/12/01 09:33:20;;;;;;;7.17;5.70;;;;;;;0.94;81.95;100924.85;1753836;81;21121;-70
2020/12/01 09:35:50;;;;;;;9.40;7.40;;;;;;;0.84;81.92;100908.59;1764141;81;21122;-71
2020/12/01 09:38:17;;;;;;;6.00;4.67;;;;;;;0.86;82.03;100904.47;1765029;81;21767;-69
2020/12/01 09:40:49;;;;;;;18.97;9.87;;;;;;;0.83;81.64;100904.27;1751565;81;21109;-70
2020/12/01 09:46:13;;;;;;;15.33;9.10;;;;;;;0.88;82.61;100893.20;1840398;76;22870;-70
2020/12/01 09:48:42;;;;;;;10.67;8.53;;;;;;;0.83;82.93;100891.03;1816262;79;20960;-71
2020/12/01 09:51:10;;;;;;;13.20;9.30;;;;;;;0.88;82.98;100883.94;1803814;79;21368;-70
2020/12/01 10:12:34;;;;;;;9.00;5.10;;;;;;;1.09;81.70;100875.59;1727189;82;21427;-71
2020/12/01 10:36:24;;;;;;;12.03;8.23;;;;;;;0.99;81.73;100874.89;1776917;80;20990;-70
2020/12/01 10:38:53;;;;;;;7.90;6.28;;;;;;;1.02;82.18;100867.94;1805993;79;20971;-69
2020/12/01 10:41:29;;;;;;;6.50;5.20;;;;;;;1.05;82.66;100875.09;1797849;78;21647;-70
2020/12/01 10:43:57;;;;;;;8.30;5.53;;;;;;;1.07;82.67;100876.23;1811777;79;21330;-71
2020/12/01 10:46:24;;;;;;;9.13;4.30;;;;;;;1.08;83.04;100868.63;1800978;78;21610;-71
2020/12/01 10:48:54;;;;;;;13.57;8.67;;;;;;;1.07;82.89;100867.80;1783875;80;21059;-70
2020/12/01 10:51:21;;;;;;;10.83;6.47;;;;;;;1.08;83.03;100864.17;1787395;80;21153;-71
2020/12/01 10:53:49;;;;;;;8.20;5.67;;;;;;;1.12;82.97;100868.16;1776307;80;21134;-71
2020/12/01 10:56:17;;;;;;;16.10;8.63;;;;;;;1.10;83.12;100871.97;1798851;77;21568;-64
2020/12/01 10:58:46;;;;;;;27.03;15.43;;;;;;;1.03;83.62;100873.58;1790940;78;21045;-68
2020/12/01 11:01:14;;;;;;;11.37;7.70;;;;;;;1.01;84.01;100879.02;1834207;77;21074;-69
2020/12/01 11:03:42;;;;;;;6.67;6.03;;;;;;;0.95;84.27;100871.73;1812134;79;21205;-70
2020/12/01 11:06:10;;;;;;;5.57;4.43;;;;;;;0.94;84.50;100858.64;1797565;79;21098;-69
2020/12/01 11:08:37;;;;;;;5.13;4.50;;;;;;;0.97;84.46;100858.31;1794781;80;23603;-69
2020/12/01 11:11:06;;;;;;;9.20;4.13;;;;;;;1.00;84.32;100853.55;1763241;80;21078;-74
2020/12/01 11:13:34;;;;;;;10.60;6.83;;;;;;;0.99;84.29;100848.41;1761708;80;21152;-72
2020/12/01 11:16:02;;;;;;;9.47;7.30;;;;;;;0.98;84.49;100851.55;1793166;78;20999;-73
2020/12/01 11:18:30;;;;;;;8.90;6.37;;;;;;;0.99;84.48;100855.02;1796504;78;21141;-70
2020/12/01 11:20:58;;;;;;;7.90;5.63;;;;;;;0.97;84.64;100860.95;1804086;78;21607;-67
2020/12/01 11:23:26;;;;;;;5.07;4.10;;;;;;;0.92;85.08;100864.09;1789443;80;20963;-70
2020/12/01 11:25:53;;;;;;;9.20;4.73;;;;;;;0.83;85.50;100859.25;1730645;81;21116;-72
2020/12/01 11:28:21;;;;;;;6.80;5.53;;;;;;;0.76;85.63;100854.76;1758153;81;21187;-70
2020/12/01 11:30:49;;;;;;;5.23;4.73;;;;;;;0.69;86.17;100847.93;1765055;80;21165;-73
2020/12/01 11:33:17;;;;;;;5.17;4.27;;;;;;;0.71;86.05;100859.20;1792930;80;21269;-75
2020/12/01 11:35:44;;;;;;;7.20;5.97;;;;;;;0.71;86.31;100853.08;1788942;80;21188;-69
2020/12/01 11:38:12;;;;;;;5.15;4.50;;;;;;;0.73;86.47;100853.23;1789195;80;21599;-68
2020/12/01 11:40:39;;;;;;;5.77;5.17;;;;;;;0.77;86.55;100851.94;1760066;81;21689;-66
2020/12/01 11:43:09;;;;;;;5.57;4.50;;;;;;;0.75;86.61;100853.93;1746088;81;28098;-68
2020/12/01 11:45:36;;;;;;;4.73;4.23;;;;;;;0.77;86.72;100849.78;1765924;81;21416;-70
2020/12/01 11:48:04;;;;;;;6.43;5.17;;;;;;;0.80;86.89;100850.31;1765912;81;21105;-71
2020/12/01 11:50:31;;;;;;;4.27;3.77;;;;;;;0.82;86.85;100853.61;1765869;81;21118;-70
2020/12/01 11:53:00;;;;;;;7.93;4.90;;;;;;;0.88;86.91;100849.02;1759194;80;21003;-71
2020/12/01 11:55:27;;;;;;;8.63;4.80;;;;;;;0.93;86.72;100856.97;1758100;81;21606;-70
2020/12/01 11:57:55;;;;;;;4.20;3.63;;;;;;;0.95;86.59;100858.98;1742886;81;21564;-70
2020/12/01 12:00:25;;;;;;;7.53;4.53;;;;;;;0.98;86.45;100861.30;1736011;81;21122;-70
2020/12/01 12:02:54;;;;;;;11.47;5.00;;;;;;;0.98;86.38;100856.84;1735074;82;21201;-74
2020/12/01 12:05:22;;;;;;;8.67;5.30;;;;;;;0.94;86.27;100850.70;1737798;82;21006;-73
2020/12/01 12:07:50;;;;;;;11.37;6.77;;;;;;;0.93;86.32;100849.03;1742239;82;21602;-74
2020/12/01 12:10:17;;;;;;;10.90;4.83;;;;;;;0.86;86.39;100843.56;1742838;82;21434;-69
2020/12/01 12:12:45;;;;;;;8.70;5.80;;;;;;;0.86;86.55;100839.59;1742713;77;21199;-65
2020/12/01 12:15:14;;;;;;;10.60;6.40;;;;;;;0.86;86.62;100839.06;1762075;79;21182;-65
2020/12/01 12:17:42;;;;;;;10.13;6.43;;;;;;;0.88;86.61;100846.86;1758982;80;21246;-65
2020/12/01 12:20:12;;;;;;;7.73;5.77;;;;;;;0.91;86.57;100846.56;1761784;81;21128;-65
2020/12/01 12:22:40;;;;;;;10.83;6.30;;;;;;;0.93;86.54;100847.21;1765628;81;21864;-65
2020/12/01 12:25:08;;;;;;;7.93;6.30;;;;;;;0.96;86.51;100847.41;1766707;79;21175;-65
2020/12/01 12:27:35;;;;;;;7.97;6.10;;;;;;;0.91;86.80;100842.59;1739041;82;21103;-62
2020/12/01 12:30:04;;;;;;;7.90;6.37;;;;;;;0.90;86.95;100849.36;1742091;81;21117;-64
2020/12/01 12:32:32;;;;;;;7.50;6.00;;;;;;;0.91;86.94;100847.89;1762815;80;21577;-61
2020/12/01 12:35:00;;;;;;;10.93;8.87;;;;;;;0.87;86.92;100851.81;1737168;82;21390;-63
2020/12/01 12:37:28;;;;;;;8.47;6.40;;;;;;;0.84;86.87;100856.95;1749254;81;21170;-64